sensor_id;sensor_type;location;lat;lon;timestamp;pressure;altitude;pressure_sealevel;temperature;humidity
33454;BME280;39400;49.744;7.012;2023-02-19T00:01:38;96437.84;;;6.35;100.00
33454;BME280;39400;49.744;7.012;2023-02-19T00:04:07;96443.38;;;6.38;100.00
33454;BME280;39400;49.744;7.012;2023-02-19T00:06:34;96461.97;;;6.33;100.00
33454;BME280;39400;49.744;7.012;2023-02-19T00:09:00;96456.50;;;6.33;100.00
33454;BME280;39400;49.744;7.012;2023-02-19T00:11:28;96439.41;;;6.36;100.00
33454;BME280;39400;49.744;7.012;2023-02-19T00:13:55;96440.56;;;6.35;100.00
33454;BME280;39400;49.744;7.012;2023-02-19T00:16:28;96448.78;;;6.35;100.00
33454;BME280;39400;49.744;7.012;2023-02-19T00:18:55;96442.44;;;6.31;100.00
33454;BME280;39400;49.744;7.012;2023-02-19T00:21:21;96452.44;;;6.27;100.00
33454;BME280;39400;49.744;7.012;2023-02-19T00:24:00;96464.81;;;6.21;100.00
33454;BME280;39400;49.744;7.012;2023-02-19T00:26:26;96457.22;;;6.30;100.00
33454;BME280;39400;49.744;7.012;2023-02-19T00:28:53;96473.59;;;6.30;100.00
33454;BME280;39400;49.744;7.012;2023-02-19T00:31:33;96456.34;;;6.26;100.00
33454;BME280;39400;49.744;7.012;2023-02-19T00:34:01;96421.28;;;6.28;100.00
33454;BME280;39400;49.744;7.012;2023-02-19T00:36:28;96429.03;;;6.26;100.00
33454;BME280;39400;49.744;7.012;2023-02-19T00:38:54;96440.66;;;6.23;100.00
33454;BME280;39400;49.744;7.012;2023-02-19T00:41:21;96439.94;;;6.26;100.00
33454;BME280;39400;49.744;7.012;2023-02-19T00:46:14;96432.03;;;6.21;100.00
33454;BME280;39400;49.744;7.012;2023-02-19T00:48:40;96431.69;;;6.22;100.00
33454;BME280;39400;49.744;7.012;2023-02-19T00:51:06;96438.22;;;6.17;100.00
33454;BME280;39400;49.744;7.012;2023-02-19T00:53:31;96449.13;;;6.17;100.00
33454;BME280;39400;49.744;7.012;2023-02-19T00:55:56;96432.91;;;6.25;100.00
33454;BME280;39400;49.744;7.012;2023-02-19T00:58:22;96431.34;;;6.24;100.00
33454;BME280;39400;49.744;7.012;2023-02-19T01:00:47;96418.81;;;6.23;100.00
33454;BME280;39400;49.744;7.012;2023-02-19T01:03:12;96424.44;;;6.30;100.00
33454;BME280;39400;49.744;7.012;2023-02-19T01:05:38;96423.66;;;6.29;100.00
33454;BME280;39400;49.744;7.012;2023-02-19T01:08:04;96429.47;;;6.28;100.00
33454;BME280;39400;49.744;7.012;2023-02-19T01:10:29;96433.78;;;6.29;100.00
33454;BME280;39400;49.744;7.012;2023-02-19T01:12:55;96425.16;;;6.27;100.00
33454;BME280;39400;49.744;7.012;2023-02-19T01:15:20;96435.28;;;6.26;100.00
33454;BME280;39400;49.744;7.012;2023-02-19T01:17:45;96420.50;;;6.27;100.00
33454;BME280;39400;49.744;7.012;2023-02-19T01:20:11;96419.78;;;6.30;100.00
33454;BME280;39400;49.744;7.012;2023-02-19T01:22:36;96414.50;;;6.37;100.00
33454;BME280;39400;49.744;7.012;2023-02-19T01:25:01;96419.31;;;6.44;100.00
33454;BME280;39400;49.744;7.012;2023-02-19T01:27:27;96429.66;;;6.35;100.00
33454;BME280;39400;49.744;7.012;2023-02-19T01:29:52;96427.09;;;6.42;100.00
33454;BME280;39400;49.744;7.012;2023-02-19T01:32:17;96419.31;;;6.44;100.00
33454;BME280;39400;49.744;7.012;2023-02-19T01:34:43;96415.44;;;6.45;100.00
33454;BME280;39400;49.744;7.012;2023-02-19T01:37:08;96409.91;;;6.41;100.00
33454;BME280;39400;49.744;7.012;2023-02-19T01:39:33;96413.59;;;6.49;100.00
33454;BME280;39400;49.744;7.012;2023-02-19T01:41:58;96405.41;;;6.49;100.00
33454;BME280;39400;49.744;7.012;2023-02-19T01:46:52;96394.53;;;6.53;100.00
33454;BME280;39400;49.744;7.012;2023-02-19T01:49:22;96415.28;;;6.38;100.00
33454;BME280;39400;49.744;7.012;2023-02-19T01:52:03;96390.00;;;6.41;100.00
33454;BME280;39400;49.744;7.012;2023-02-19T01:54:32;96391.06;;;6.36;100.00
33454;BME280;39400;49.744;7.012;2023-02-19T01:57:01;96394.16;;;6.35;100.00
33454;BME280;39400;49.744;7.012;2023-02-19T01:59:30;96399.59;;;6.35;100.00
33454;BME280;39400;49.744;7.012;2023-02-19T02:01:56;96378.53;;;6.35;100.00
33454;BME280;39400;49.744;7.012;2023-02-19T02:04:22;96377.84;;;6.38;100.00
33454;BME280;39400;49.744;7.012;2023-02-19T02:06:51;96375.44;;;6.37;100.00
33454;BME280;39400;49.744;7.012;2023-02-19T02:09:21;96364.44;;;6.33;100.00
33454;BME280;39400;49.744;7.012;2023-02-19T02:11:50;96374.66;;;6.36;100.00
33454;BME280;39400;49.744;7.012;2023-02-19T02:14:23;96366.56;;;6.40;100.00
33454;BME280;39400;49.744;7.012;2023-02-19T02:22:20;96376.91;;;6.31;100.00
33454;BME280;39400;49.744;7.012;2023-02-19T02:35:35;96357.09;;;6.18;100.00
33454;BME280;39400;49.744;7.012;2023-02-19T02:38:06;96346.09;;;6.14;100.00
33454;BME280;39400;49.744;7.012;2023-02-19T02:40:34;96366.53;;;6.21;100.00
33454;BME280;39400;49.744;7.012;2023-02-19T02:43:00;96366.53;;;6.21;100.00
33454;BME280;39400;49.744;7.012;2023-02-19T02:45:31;96373.72;;;6.29;100.00
33454;BME280;39400;49.744;7.012;2023-02-19T02:47:57;96377.53;;;6.24;100.00
33454;BME280;39400;49.744;7.012;2023-02-19T02:50:30;96375.41;;;6.17;100.00
33454;BME280;39400;49.744;7.012;2023-02-19T02:53:07;96367.13;;;6.14;100.00
33454;BME280;39400;49.744;7.012;2023-02-19T02:55:41;96374.09;;;6.11;100.00
33454;BME280;39400;49.744;7.012;2023-02-19T02:58:09;96358.88;;;6.10;100.00
33454;BME280;39400;49.744;7.012;2023-02-19T03:00:36;96363.00;;;6.04;100.00
33454;BME280;39400;49.744;7.012;2023-02-19T03:03:03;96361.59;;;6.10;100.00
33454;BME280;39400;49.744;7.012;2023-02-19T03:05:29;96367.47;;;6.12;100.00
33454;BME280;39400;49.744;7.012;2023-02-19T03:08:11;96366.19;;;6.06;100.00
33454;BME280;39400;49.744;7.012;2023-02-19T03:10:40;96358.94;;;5.98;100.00
33454;BME280;39400;49.744;7.012;2023-02-19T03:13:10;96361.34;;;6.00;100.00
33454;BME280;39400;49.744;7.012;2023-02-19T03:15:42;96367.16;;;5.98;100.00
33454;BME280;39400;49.744;7.012;2023-02-19T03:18:10;96358.94;;;5.98;100.00
33454;BME280;39400;49.744;7.012;2023-02-19T03:20:40;96361.34;;;6.00;100.00
33454;BME280;39400;49.744;7.012;2023-02-19T03:23:09;96359.75;;;5.99;100.00
33454;BME280;39400;49.744;7.012;2023-02-19T03:25:36;96366.91;;;6.03;100.00
33454;BME280;39400;49.744;7.012;2023-02-19T03:28:07;96377.53;;;6.08;100.00
33454;BME280;39400;49.744;7.012;2023-02-19T03:30:37;96399.38;;;6.08;100.00
33454;BME280;39400;49.744;7.012;2023-02-19T03:33:25;96392.31;;;6.07;100.00
33454;BME280;39400;49.744;7.012;2023-02-19T03:35:56;96368.91;;;6.06;100.00
33454;BME280;39400;49.744;7.012;2023-02-19T03:38:31;96382.47;;;6.03;100.00
33454;BME280;39400;49.744;7.012;2023-02-19T03:51:26;96373.47;;;6.02;100.00
33454;BME280;39400;49.744;7.012;2023-02-19T03:54:17;96376.91;;;5.99;100.00
33454;BME280;39400;49.744;7.012;2023-02-19T03:56:52;96368.28;;;5.97;100.00
33454;BME280;39400;49.744;7.012;2023-02-19T03:59:34;96377.72;;;6.00;100.00
33454;BME280;39400;49.744;7.012;2023-02-19T04:02:08;96370.03;;;6.05;100.00
33454;BME280;39400;49.744;7.012;2023-02-19T04:04:40;96378.69;;;6.07;100.00
33454;BME280;39400;49.744;7.012;2023-02-19T04:07:08;96376.28;;;6.06;100.00
33454;BME280;39400;49.744;7.012;2023-02-19T04:09:47;96379.38;;;6.04;100.00
33454;BME280;39400;49.744;7.012;2023-02-19T04:12:17;96378.50;;;6.00;100.00
33454;BME280;39400;49.744;7.012;2023-02-19T04:14:53;96401.06;;;5.97;100.00
33454;BME280;39400;49.744;7.012;2023-02-19T04:17:33;96381.56;;;5.99;100.00
33454;BME280;39400;49.744;7.012;2023-02-19T04:20:02;96373.84;;;6.01;100.00
33454;BME280;39400;49.744;7.012;2023-02-19T04:22:30;96383.19;;;6.00;100.00
33454;BME280;39400;49.744;7.012;2023-02-19T04:24:55;96393.56;;;5.94;100.00
33454;BME280;39400;49.744;7.012;2023-02-19T04:27:20;96384.47;;;5.90;100.00
33454;BME280;39400;49.744;7.012;2023-02-19T04:29:46;96398.53;;;5.92;100.00
33454;BME280;39400;49.744;7.012;2023-02-19T04:32:12;96418.63;;;5.84;100.00
33454;BME280;39400;49.744;7.012;2023-02-19T04:34:38;96425.03;;;5.76;100.00
33454;BME280;39400;49.744;7.012;2023-02-19T04:37:04;96413.44;;;5.79;100.00
33454;BME280;39400;49.744;7.012;2023-02-19T04:39:29;96409.56;;;5.80;100.00
33454;BME280;39400;49.744;7.012;2023-02-19T04:41:54;96408.75;;;5.79;100.00
33454;BME280;39400;49.744;7.012;2023-02-19T04:44:20;96412.28;;;5.80;100.00
33454;BME280;39400;49.744;7.012;2023-02-19T04:46:45;96406.81;;;5.80;100.00
33454;BME280;39400;49.744;7.012;2023-02-19T04:49:11;96420.91;;;5.82;100.00
33454;BME280;39400;49.744;7.012;2023-02-19T04:51:37;96425.22;;;5.83;100.00
33454;BME280;39400;49.744;7.012;2023-02-19T04:54:02;96436.56;;;5.85;100.00
33454;BME280;39400;49.744;7.012;2023-02-19T04:56:27;96431.47;;;5.83;100.00
33454;BME280;39400;49.744;7.012;2023-02-19T04:58:53;96429.53;;;5.84;100.00
33454;BME280;39400;49.744;7.012;2023-02-19T05:01:18;96439.28;;;5.85;100.00
33454;BME280;39400;49.744;7.012;2023-02-19T05:03:44;96435.78;;;5.84;100.00
33454;BME280;39400;49.744;7.012;2023-02-19T05:06:11;96451.81;;;5.86;100.00
33454;BME280;39400;49.744;7.012;2023-02-19T05:08:37;96442.03;;;5.85;100.00
33454;BME280;39400;49.744;7.012;2023-02-19T05:11:04;96439.38;;;5.88;100.00
33454;BME280;39400;49.744;7.012;2023-02-19T05:13:30;96453.41;;;5.87;100.00
33454;BME280;39400;49.744;7.012;2023-02-19T05:15:58;96442.81;;;5.85;100.00
33454;BME280;39400;49.744;7.012;2023-02-19T05:18:24;96446.34;;;5.86;100.00
33454;BME280;39400;49.744;7.012;2023-02-19T05:20:50;96435.53;;;5.89;100.00
33454;BME280;39400;49.744;7.012;2023-02-19T05:23:15;96443.28;;;5.87;100.00
33454;BME280;39400;49.744;7.012;2023-02-19T05:25:41;96456.72;;;5.80;100.00
33454;BME280;39400;49.744;7.012;2023-02-19T05:28:06;96442.94;;;5.89;100.00
33454;BME280;39400;49.744;7.012;2023-02-19T05:30:31;96442.94;;;5.89;100.00
33454;BME280;39400;49.744;7.012;2023-02-19T05:32:56;96452.59;;;5.86;100.00
33454;BME280;39400;49.744;7.012;2023-02-19T05:35:22;96446.34;;;5.86;100.00
33454;BME280;39400;49.744;7.012;2023-02-19T05:37:47;96458.22;;;5.78;100.00
33454;BME280;39400;49.744;7.012;2023-02-19T05:40:12;96447.31;;;5.78;100.00
33454;BME280;39400;49.744;7.012;2023-02-19T05:42:38;96462.97;;;5.81;100.00
33454;BME280;39400;49.744;7.012;2023-02-19T05:45:03;96461.31;;;5.76;100.00
33454;BME280;39400;49.744;7.012;2023-02-19T05:47:29;96461.63;;;5.75;100.00
33454;BME280;39400;49.744;7.012;2023-02-19T05:49:54;96467.00;;;5.71;100.00
33454;BME280;39400;49.744;7.012;2023-02-19T05:52:19;96457.34;;;5.73;100.00
33454;BME280;39400;49.744;7.012;2023-02-19T05:54:44;96460.50;;;5.76;100.00
33454;BME280;39400;49.744;7.012;2023-02-19T05:57:10;96464.81;;;5.77;100.00
33454;BME280;39400;49.744;7.012;2023-02-19T05:59:35;96468.78;;;5.79;100.00
33454;BME280;39400;49.744;7.012;2023-02-19T06:02:00;96464.56;;;5.82;100.00
33454;BME280;39400;49.744;7.012;2023-02-19T06:04:26;96473.09;;;5.80;100.00
33454;BME280;39400;49.744;7.012;2023-02-19T06:06:51;96479.81;;;5.83;100.00
33454;BME280;39400;49.744;7.012;2023-02-19T06:09:16;96475.81;;;5.80;100.00
33454;BME280;39400;49.744;7.012;2023-02-19T06:11:42;96494.31;;;5.87;100.00
33454;BME280;39400;49.744;7.012;2023-02-19T06:14:07;96490.03;;;5.86;100.00
33454;BME280;39400;49.744;7.012;2023-02-19T06:16:32;96486.59;;;5.89;100.00
33454;BME280;39400;49.744;7.012;2023-02-19T06:18:58;96490.03;;;5.86;100.00
33454;BME280;39400;49.744;7.012;2023-02-19T06:21:25;96486.84;;;5.84;100.00
33454;BME280;39400;49.744;7.012;2023-02-19T06:23:51;96477.22;;;5.74;100.00
33454;BME280;39400;49.744;7.012;2023-02-19T06:26:18;96483.13;;;5.76;100.00
33454;BME280;39400;49.744;7.012;2023-02-19T06:28:45;96504.97;;;5.76;100.00
33454;BME280;39400;49.744;7.012;2023-02-19T06:31:11;96511.91;;;5.73;100.00
33454;BME280;39400;49.744;7.012;2023-02-19T06:33:38;96499.50;;;5.76;100.00
33454;BME280;39400;49.744;7.012;2023-02-19T06:36:04;96521.66;;;5.75;100.00
33454;BME280;39400;49.744;7.012;2023-02-19T06:38:30;96526.00;;;5.76;100.00
33454;BME280;39400;49.744;7.012;2023-02-19T06:40:59;96519.66;;;5.71;100.00
33454;BME280;39400;49.744;7.012;2023-02-19T06:43:25;96518.94;;;5.75;100.00
33454;BME280;39400;49.744;7.012;2023-02-19T06:45:50;96511.00;;;5.69;100.00
33454;BME280;39400;49.744;7.012;2023-02-19T06:48:16;96514.19;;;5.71;100.00
33454;BME280;39400;49.744;7.012;2023-02-19T06:50:41;96528.06;;;5.66;100.00
33454;BME280;39400;49.744;7.012;2023-02-19T06:53:06;96525.13;;;5.71;100.00
33454;BME280;39400;49.744;7.012;2023-02-19T06:55:32;96533.72;;;5.73;100.00
33454;BME280;39400;49.744;7.012;2023-02-19T06:57:57;96528.03;;;5.79;100.00
33454;BME280;39400;49.744;7.012;2023-02-19T07:00:22;96534.38;;;5.83;100.00
33454;BME280;39400;49.744;7.012;2023-02-19T07:02:48;96540.97;;;5.82;100.00
33454;BME280;39400;49.744;7.012;2023-02-19T07:05:13;96544.94;;;5.84;100.00
33454;BME280;39400;49.744;7.012;2023-02-19T07:07:38;96548.03;;;5.83;100.00
33454;BME280;39400;49.744;7.012;2023-02-19T07:10:04;96554.50;;;5.78;100.00
33454;BME280;39400;49.744;7.012;2023-02-19T07:12:29;96563.41;;;5.75;100.00
33454;BME280;39400;49.744;7.012;2023-02-19T07:14:55;96565.00;;;5.76;100.00
33454;BME280;39400;49.744;7.012;2023-02-19T07:17:20;96564.88;;;5.72;100.00
33454;BME280;39400;49.744;7.012;2023-02-19T07:19:45;96569.75;;;5.79;100.00
33454;BME280;39400;49.744;7.012;2023-02-19T07:22:10;96580.78;;;5.83;100.00
33454;BME280;39400;49.744;7.012;2023-02-19T07:24:36;96575.13;;;5.76;100.00
33454;BME280;39400;49.744;7.012;2023-02-19T07:27:01;96584.69;;;5.69;100.00
33454;BME280;39400;49.744;7.012;2023-02-19T07:29:26;96574.09;;;5.68;100.00
33454;BME280;39400;49.744;7.012;2023-02-19T07:31:52;96571.03;;;5.69;100.00
33454;BME280;39400;49.744;7.012;2023-02-19T07:34:17;96573.41;;;5.71;100.00
33454;BME280;39400;49.744;7.012;2023-02-19T07:36:42;96580.47;;;5.72;100.00
33454;BME280;39400;49.744;7.012;2023-02-19T07:39:11;96591.41;;;5.88;100.00
33454;BME280;39400;49.744;7.012;2023-02-19T07:41:37;96591.00;;;5.86;100.00
33454;BME280;39400;49.744;7.012;2023-02-19T07:44:04;96581.78;;;5.78;100.00
33454;BME280;39400;49.744;7.012;2023-02-19T07:46:30;96588.06;;;5.79;100.00
33454;BME280;39400;49.744;7.012;2023-02-19T07:48:55;96586.91;;;5.80;100.00
33454;BME280;39400;49.744;7.012;2023-02-19T07:51:20;96587.34;;;5.82;100.00
33454;BME280;39400;49.744;7.012;2023-02-19T07:53:47;96584.84;;;5.89;100.00
33454;BME280;39400;49.744;7.012;2023-02-19T07:56:13;96592.56;;;5.87;100.00
33454;BME280;39400;49.744;7.012;2023-02-19T07:58:39;96592.56;;;5.87;100.00
33454;BME280;39400;49.744;7.012;2023-02-19T08:01:08;96599.72;;;5.91;100.00
33454;BME280;39400;49.744;7.012;2023-02-19T08:03:35;96597.25;;;5.86;100.00
33454;BME280;39400;49.744;7.012;2023-02-19T08:06:00;96596.19;;;5.91;100.00
33454;BME280;39400;49.744;7.012;2023-02-19T08:08:26;96612.81;;;5.86;100.00
33454;BME280;39400;49.744;7.012;2023-02-19T08:10:51;96605.84;;;5.88;100.00
33454;BME280;39400;49.744;7.012;2023-02-19T08:13:16;96609.84;;;5.91;100.00
33454;BME280;39400;49.744;7.012;2023-02-19T08:15:42;96613.84;;;5.93;100.00
33454;BME280;39400;49.744;7.012;2023-02-19T08:18:08;96619.16;;;5.90;100.00
33454;BME280;39400;49.744;7.012;2023-02-19T08:20:34;96618.63;;;5.97;100.00
33454;BME280;39400;49.744;7.012;2023-02-19T08:23:00;96624.78;;;6.09;100.00
33454;BME280;39400;49.744;7.012;2023-02-19T08:25:25;96632.78;;;6.02;100.00
33454;BME280;39400;49.744;7.012;2023-02-19T08:27:50;96634.63;;;5.98;100.00
33454;BME280;39400;49.744;7.012;2023-02-19T08:30:16;96650.69;;;6.00;100.00
33454;BME280;39400;49.744;7.012;2023-02-19T08:32:41;96646.00;;;6.00;100.00
33454;BME280;39400;49.744;7.012;2023-02-19T08:35:07;96646.69;;;5.97;100.00
33454;BME280;39400;49.744;7.012;2023-02-19T08:37:32;96648.47;;;6.05;100.00
33454;BME280;39400;49.744;7.012;2023-02-19T08:39:57;96651.09;;;6.02;100.00
33454;BME280;39400;49.744;7.012;2023-02-19T08:42:23;96651.69;;;5.95;100.00
33454;BME280;39400;49.744;7.012;2023-02-19T08:44:48;96650.56;;;5.96;100.00
33454;BME280;39400;49.744;7.012;2023-02-19T08:47:13;96669.44;;;6.01;100.00
33454;BME280;39400;49.744;7.012;2023-02-19T08:49:39;96670.31;;;6.05;100.00
33454;BME280;39400;49.744;7.012;2023-02-19T08:52:04;96672.63;;;6.03;100.00
33454;BME280;39400;49.744;7.012;2023-02-19T08:54:29;96688.19;;;5.90;100.00
33454;BME280;39400;49.744;7.012;2023-02-19T08:56:55;96675.97;;;6.12;100.00
33454;BME280;39400;49.744;7.012;2023-02-19T08:59:20;96674.88;;;6.01;100.00
33454;BME280;39400;49.744;7.012;2023-02-19T09:01:45;96686.50;;;5.98;100.00
33454;BME280;39400;49.744;7.012;2023-02-19T09:04:11;96678.06;;;5.91;100.00
33454;BME280;39400;49.744;7.012;2023-02-19T09:06:36;96685.59;;;5.94;100.00
33454;BME280;39400;49.744;7.012;2023-02-19T09:09:02;96689.56;;;5.97;100.00
33454;BME280;39400;49.744;7.012;2023-02-19T09:11:27;96693.03;;;6.09;100.00
33454;BME280;39400;49.744;7.012;2023-02-19T09:13:54;96697.19;;;6.03;100.00
33454;BME280;39400;49.744;7.012;2023-02-19T09:16:20;96693.03;;;6.09;100.00
33454;BME280;39400;49.744;7.012;2023-02-19T09:18:45;96704.59;;;6.03;100.00
33454;BME280;39400;49.744;7.012;2023-02-19T09:21:11;96708.16;;;6.19;100.00
33454;BME280;39400;49.744;7.012;2023-02-19T09:23:36;96707.94;;;6.12;100.00
33454;BME280;39400;49.744;7.012;2023-02-19T09:26:03;96714.41;;;6.19;100.00
33454;BME280;39400;49.744;7.012;2023-02-19T09:28:29;96713.97;;;6.17;100.00
33454;BME280;39400;49.744;7.012;2023-02-19T09:30:54;96712.13;;;6.22;100.00
33454;BME280;39400;49.744;7.012;2023-02-19T09:33:20;96710.06;;;6.31;100.00
33454;BME280;39400;49.744;7.012;2023-02-19T09:35:45;96724.94;;;6.33;100.00
33454;BME280;39400;49.744;7.012;2023-02-19T09:38:10;96715.47;;;6.43;100.00
33454;BME280;39400;49.744;7.012;2023-02-19T09:40:37;96714.78;;;6.46;100.00
33454;BME280;39400;49.744;7.012;2023-02-19T09:43:15;96716.03;;;6.49;100.00
33454;BME280;39400;49.744;7.012;2023-02-19T09:45:42;96720.22;;;6.46;100.00
33454;BME280;39400;49.744;7.012;2023-02-19T09:48:08;96717.69;;;6.53;100.00
33454;BME280;39400;49.744;7.012;2023-02-19T09:50:38;96722.78;;;6.39;100.00
33454;BME280;39400;49.744;7.012;2023-02-19T09:53:11;96730.66;;;6.56;100.00
33454;BME280;39400;49.744;7.012;2023-02-19T09:55:40;96729.22;;;6.47;100.00
33454;BME280;39400;49.744;7.012;2023-02-19T09:58:29;96722.88;;;6.42;100.00
33454;BME280;39400;49.744;7.012;2023-02-19T10:00:57;96731.84;;;6.43;100.00
33454;BME280;39400;49.744;7.012;2023-02-19T10:03:27;96731.03;;;6.55;100.00
33454;BME280;39400;49.744;7.012;2023-02-19T10:05:53;96729.41;;;6.54;100.00
33454;BME280;39400;49.744;7.012;2023-02-19T10:08:19;96734.19;;;6.57;100.00
33454;BME280;39400;49.744;7.012;2023-02-19T10:10:45;96739.41;;;6.62;100.00
33454;BME280;39400;49.744;7.012;2023-02-19T10:13:13;96739.75;;;6.60;100.00
33454;BME280;39400;49.744;7.012;2023-02-19T10:15:50;96736.03;;;6.53;100.00
33454;BME280;39400;49.744;7.012;2023-02-19T10:18:18;96730.41;;;6.61;100.00
33454;BME280;39400;49.744;7.012;2023-02-19T10:20:45;96732.09;;;6.66;100.00
33454;BME280;39400;49.744;7.012;2023-02-19T10:23:13;96733.78;;;6.71;100.00
33454;BME280;39400;49.744;7.012;2023-02-19T10:25:43;96747.16;;;6.60;100.00
33454;BME280;39400;49.744;7.012;2023-02-19T10:28:16;96744.72;;;6.71;100.00
33454;BME280;39400;49.744;7.012;2023-02-19T10:30:42;96733.00;;;6.70;100.00
33454;BME280;39400;49.744;7.012;2023-02-19T10:33:13;96735.78;;;6.86;100.00
33454;BME280;39400;49.744;7.012;2023-02-19T10:35:59;96741.25;;;6.86;100.00
33454;BME280;39400;49.744;7.012;2023-02-19T10:38:28;96738.94;;;6.88;100.00
33454;BME280;39400;49.744;7.012;2023-02-19T10:43:33;96743.00;;;6.94;100.00
33454;BME280;39400;49.744;7.012;2023-02-19T10:46:06;96743.00;;;6.94;100.00
33454;BME280;39400;49.744;7.012;2023-02-19T10:48:44;96746.16;;;6.96;100.00
33454;BME280;39400;49.744;7.012;2023-02-19T10:51:11;96745.38;;;6.96;100.00
33454;BME280;39400;49.744;7.012;2023-02-19T10:56:27;96757.56;;;6.98;100.00
33454;BME280;39400;49.744;7.012;2023-02-19T10:58:53;96734.56;;;7.15;100.00
33454;BME280;39400;49.744;7.012;2023-02-19T11:01:20;96749.81;;;7.16;100.00
33454;BME280;39400;49.744;7.012;2023-02-19T11:03:52;96754.31;;;7.08;100.00
33454;BME280;39400;49.744;7.012;2023-02-19T11:06:36;96768.44;;;7.10;100.00
33454;BME280;39400;49.744;7.012;2023-02-19T11:09:01;96766.13;;;7.12;100.00
33454;BME280;39400;49.744;7.012;2023-02-19T11:11:33;96770.34;;;6.94;100.00
33454;BME280;39400;49.744;7.012;2023-02-19T11:14:21;96769.47;;;6.90;100.00
33454;BME280;39400;49.744;7.012;2023-02-19T11:16:49;96772.56;;;7.04;100.00
33454;BME280;39400;49.744;7.012;2023-02-19T11:19:25;96774.44;;;7.00;100.00
33454;BME280;39400;49.744;7.012;2023-02-19T11:21:52;96769.38;;;7.02;100.00
33454;BME280;39400;49.744;7.012;2023-02-19T11:24:23;96778.28;;;6.99;100.00
33454;BME280;39400;49.744;7.012;2023-02-19T11:26:49;96778.88;;;6.93;100.00
33454;BME280;39400;49.744;7.012;2023-02-19T11:29:19;96780.09;;;7.07;100.00
33454;BME280;39400;49.744;7.012;2023-02-19T11:31:44;96773.91;;;7.10;100.00
33454;BME280;39400;49.744;7.012;2023-02-19T11:36:38;96776.38;;;7.15;100.00
33454;BME280;39400;49.744;7.012;2023-02-19T11:47:04;96787.88;;;7.53;100.00
33454;BME280;39400;49.744;7.012;2023-02-19T11:52:43;96767.50;;;7.50;100.00
33454;BME280;39400;49.744;7.012;2023-02-19T11:58:08;96765.78;;;7.61;100.00
33454;BME280;39400;49.744;7.012;2023-02-19T12:00:51;96761.72;;;7.87;100.00
33454;BME280;39400;49.744;7.012;2023-02-19T12:06:00;96764.78;;;8.01;100.00
33454;BME280;39400;49.744;7.012;2023-02-19T12:08:55;96759.91;;;8.10;100.00
33454;BME280;39400;49.744;7.012;2023-02-19T12:22:29;96772.69;;;7.71;100.00
33454;BME280;39400;49.744;7.012;2023-02-19T12:28:37;96771.81;;;7.83;100.00
33454;BME280;39400;49.744;7.012;2023-02-19T12:31:17;96768.38;;;7.70;100.00
33454;BME280;39400;49.744;7.012;2023-02-19T12:33:57;96771.44;;;7.69;100.00
33454;BME280;39400;49.744;7.012;2023-02-19T12:36:52;96776.91;;;7.69;100.00
33454;BME280;39400;49.744;7.012;2023-02-19T12:45:26;96791.59;;;7.60;100.00
33454;BME280;39400;49.744;7.012;2023-02-19T12:48:04;96783.13;;;7.66;100.00
33454;BME280;39400;49.744;7.012;2023-02-19T12:50:30;96781.00;;;7.43;100.00
33454;BME280;39400;49.744;7.012;2023-02-19T12:53:10;96772.53;;;7.48;100.00
33454;BME280;39400;49.744;7.012;2023-02-19T12:55:40;96793.50;;;7.44;100.00
33454;BME280;39400;49.744;7.012;2023-02-19T12:58:12;96791.41;;;7.53;100.00
33454;BME280;39400;49.744;7.012;2023-02-19T13:00:49;96791.47;;;7.25;100.00
33454;BME280;39400;49.744;7.012;2023-02-19T13:05:52;96787.31;;;7.15;100.00
33454;BME280;39400;49.744;7.012;2023-02-19T13:08:30;96799.75;;;7.13;100.00
33454;BME280;39400;49.744;7.012;2023-02-19T13:11:00;96798.34;;;7.03;100.00
33454;BME280;39400;49.744;7.012;2023-02-19T13:13:33;96783.81;;;7.31;100.00
33454;BME280;39400;49.744;7.012;2023-02-19T13:16:04;96783.97;;;7.22;100.00
33454;BME280;39400;49.744;7.012;2023-02-19T13:18:36;96781.16;;;7.19;100.00
33454;BME280;39400;49.744;7.012;2023-02-19T13:21:04;96768.88;;;7.12;100.00
33454;BME280;39400;49.744;7.012;2023-02-19T13:23:48;96771.69;;;7.16;100.00
33454;BME280;39400;49.744;7.012;2023-02-19T13:26:35;96768.44;;;7.10;100.00
33454;BME280;39400;49.744;7.012;2023-02-19T13:31:56;96774.53;;;7.20;100.00
33454;BME280;39400;49.744;7.012;2023-02-19T13:37:16;96780.59;;;6.97;100.00
33454;BME280;39400;49.744;7.012;2023-02-19T13:39:48;96777.41;;;6.95;100.00
33454;BME280;39400;49.744;7.012;2023-02-19T13:42:25;96777.56;;;6.86;100.00
33454;BME280;39400;49.744;7.012;2023-02-19T13:44:52;96776.31;;;6.84;100.00
33454;BME280;39400;49.744;7.012;2023-02-19T13:50:34;96765.34;;;7.12;100.00
33454;BME280;39400;49.744;7.012;2023-02-19T13:53:00;96769.25;;;7.27;100.00
33454;BME280;39400;49.744;7.012;2023-02-19T14:01:07;96780.81;;;7.36;100.00
33454;BME280;39400;49.744;7.012;2023-02-19T14:06:07;96769.50;;;7.22;100.00
33454;BME280;39400;49.744;7.012;2023-02-19T14:08:59;96772.88;;;7.31;100.00
33454;BME280;39400;49.744;7.012;2023-02-19T14:14:33;96788.47;;;7.30;100.00
33454;BME280;39400;49.744;7.012;2023-02-19T14:19:49;96794.75;;;7.31;100.00
33454;BME280;39400;49.744;7.012;2023-02-19T14:25:23;96782.47;;;6.81;100.00
33454;BME280;39400;49.744;7.012;2023-02-19T14:27:51;96775.94;;;6.70;100.00
33454;BME280;39400;49.744;7.012;2023-02-19T14:30:17;96791.34;;;6.90;100.00
33454;BME280;39400;49.744;7.012;2023-02-19T14:32:43;96786.16;;;6.73;100.00
33454;BME280;39400;49.744;7.012;2023-02-19T14:35:23;96788.25;;;6.63;100.00
33454;BME280;39400;49.744;7.012;2023-02-19T14:37:50;96796.31;;;6.72;100.00
33454;BME280;39400;49.744;7.012;2023-02-19T14:40:33;96801.44;;;6.61;100.00
33454;BME280;39400;49.744;7.012;2023-02-19T14:43:01;96801.44;;;6.61;100.00
33454;BME280;39400;49.744;7.012;2023-02-19T14:45:27;96798.97;;;6.56;100.00
33454;BME280;39400;49.744;7.012;2023-02-19T14:47:55;96812.53;;;6.53;100.00
33454;BME280;39400;49.744;7.012;2023-02-19T14:50:31;96816.91;;;6.70;100.00
33454;BME280;39400;49.744;7.012;2023-02-19T14:53:02;96818.88;;;6.69;100.00